createdAt,value
2019-05-17T00:00:48.868Z,10.66
2019-05-17T00:03:20.568Z,10.68
2019-05-17T00:05:50.610Z,10.69
2019-05-17T00:08:33.703Z,10.68
2019-05-17T00:10:57.031Z,10.67
2019-05-17T00:13:28.834Z,10.68
2019-05-17T00:15:58.938Z,10.68
2019-05-17T00:18:28.947Z,10.68
2019-05-17T00:20:58.966Z,10.70
2019-05-17T00:23:29.065Z,10.73
2019-05-17T00:25:59.163Z,10.76
2019-05-17T00:28:29.305Z,10.79
2019-05-17T00:30:59.343Z,10.76
2019-05-17T00:33:29.352Z,10.74
2019-05-17T00:35:59.389Z,10.75
2019-05-17T00:38:29.479Z,10.78
2019-05-17T00:40:59.549Z,10.77
2019-05-17T00:43:29.578Z,10.72
2019-05-17T00:45:59.613Z,10.79
2019-05-17T00:48:29.617Z,10.75
2019-05-17T00:51:02.180Z,10.73
2019-05-17T00:53:31.388Z,10.78
2019-05-17T00:56:01.425Z,10.78
2019-05-17T00:58:31.504Z,10.80
2019-05-17T01:01:01.537Z,10.84
2019-05-17T01:03:31.545Z,10.79
2019-05-17T01:06:01.577Z,10.74
2019-05-17T01:08:32.044Z,10.84
2019-05-17T01:11:02.152Z,10.75
2019-05-17T01:13:32.165Z,10.76
2019-05-17T01:16:02.264Z,10.74
2019-05-17T01:18:32.263Z,10.78
2019-05-17T01:21:02.851Z,10.72
2019-05-17T01:23:32.861Z,10.71
2019-05-17T01:26:02.970Z,10.71
2019-05-17T01:28:36.434Z,10.69
2019-05-17T01:31:06.869Z,10.70
2019-05-17T01:33:37.452Z,10.71
2019-05-17T01:36:07.480Z,10.73
2019-05-17T01:38:37.890Z,10.73
2019-05-17T01:41:08.267Z,10.78
2019-05-17T01:43:38.270Z,10.77
2019-05-17T01:46:09.338Z,10.73
2019-05-17T01:48:39.365Z,10.72
2019-05-17T01:51:09.370Z,10.71
2019-05-17T01:53:39.468Z,10.76
2019-05-17T01:56:12.286Z,10.73
2019-05-17T01:58:42.311Z,10.75
2019-05-17T02:01:12.469Z,10.74
2019-05-17T02:03:42.495Z,10.82
2019-05-17T02:06:12.569Z,10.81
2019-05-17T02:08:42.590Z,10.77
2019-05-17T02:11:12.743Z,10.85
2019-05-17T02:13:46.733Z,10.77
2019-05-17T02:16:16.689Z,10.76
2019-05-17T02:18:47.305Z,10.82
2019-05-17T02:21:17.315Z,10.77
2019-05-17T02:23:47.349Z,10.78
2019-05-17T02:26:17.493Z,10.72
2019-05-17T02:28:49.052Z,10.73
2019-05-17T02:31:19.616Z,10.78
2019-05-17T02:33:53.357Z,10.72
2019-05-17T02:36:22.827Z,10.68
2019-05-17T02:38:53.268Z,10.70
2019-05-17T02:41:23.250Z,10.66
2019-05-17T02:43:55.573Z,10.65
2019-05-17T02:46:28.754Z,10.65
2019-05-17T02:48:58.782Z,10.62
2019-05-17T02:51:28.810Z,10.65
2019-05-17T02:53:58.992Z,10.70
2019-05-17T02:56:32.538Z,10.70
2019-05-17T02:59:03.644Z,10.66
2019-05-17T03:01:33.970Z,10.65
2019-05-17T03:04:04.241Z,10.61
2019-05-17T03:06:35.758Z,10.67
2019-05-17T03:09:06.604Z,10.65
2019-05-17T03:11:36.648Z,10.65
2019-05-17T03:14:06.789Z,10.63
2019-05-17T03:16:36.817Z,10.63
2019-05-17T03:19:06.912Z,10.58
2019-05-17T03:21:36.909Z,10.61
2019-05-17T03:24:07.083Z,10.62
2019-05-17T03:26:38.630Z,10.67
2019-05-17T03:29:08.654Z,10.61
2019-05-17T03:31:44.852Z,10.54
2019-05-17T03:34:16.605Z,10.63
2019-05-17T03:36:46.687Z,10.63
2019-05-17T03:39:15.472Z,10.61
2019-05-17T03:41:45.551Z,10.56
2019-05-17T03:44:15.726Z,10.62
2019-05-17T03:46:45.748Z,10.55
2019-05-17T03:49:15.781Z,10.56
2019-05-17T03:51:45.805Z,10.56
2019-05-17T03:54:16.339Z,10.56
2019-05-17T03:56:46.706Z,10.65
2019-05-17T03:59:16.855Z,10.62
2019-05-17T04:01:47.045Z,10.62
2019-05-17T04:04:22.786Z,10.63
2019-05-17T04:06:48.844Z,10.68
2019-05-17T04:09:22.459Z,10.64
2019-05-17T04:11:53.637Z,10.67
2019-05-17T04:14:23.542Z,10.67
2019-05-17T04:16:53.918Z,10.67
2019-05-17T04:19:23.925Z,10.69
2019-05-17T04:21:53.989Z,10.75
2019-05-17T04:24:23.966Z,10.73
2019-05-17T04:26:53.999Z,10.82
2019-05-17T04:29:24.008Z,10.80
2019-05-17T04:31:54.675Z,10.80
2019-05-17T04:34:24.838Z,10.82
2019-05-17T04:36:54.880Z,10.86
2019-05-17T04:39:24.878Z,10.87
2019-05-17T04:41:55.202Z,10.87
2019-05-17T04:44:25.366Z,10.87
2019-05-17T04:46:55.549Z,10.94
2019-05-17T04:49:25.586Z,11.11
2019-05-17T04:51:55.801Z,11.19
2019-05-17T04:54:29.008Z,11.36
2019-05-17T04:57:02.387Z,11.50
2019-05-17T04:59:33.849Z,11.50
2019-05-17T05:02:04.116Z,11.41
2019-05-17T05:04:38.355Z,11.42
2019-05-17T05:07:07.093Z,11.50
2019-05-17T05:09:42.920Z,11.55
2019-05-17T05:12:12.805Z,11.55
2019-05-17T05:14:43.235Z,11.66
2019-05-17T05:17:13.451Z,11.76
2019-05-17T05:19:43.477Z,11.73
2019-05-17T05:22:17.436Z,11.61
2019-05-17T05:24:45.211Z,11.61
2019-05-17T05:27:15.235Z,11.52
2019-05-17T05:29:46.832Z,11.40
2019-05-17T05:32:16.851Z,11.40
2019-05-17T05:34:46.863Z,11.44
2019-05-17T05:37:16.882Z,11.42
2019-05-17T05:39:46.883Z,11.47
2019-05-17T05:42:16.923Z,11.66
2019-05-17T05:44:46.963Z,11.66
2019-05-17T05:47:16.965Z,11.78
2019-05-17T05:49:47.064Z,11.85
2019-05-17T05:52:17.074Z,11.77
2019-05-17T05:54:47.091Z,11.77
2019-05-17T05:57:17.159Z,11.73
2019-05-17T05:59:47.192Z,11.73
2019-05-17T06:02:17.282Z,11.77
2019-05-17T06:04:48.380Z,12.00
2019-05-17T06:07:18.470Z,12.09
2019-05-17T06:09:48.482Z,12.09
2019-05-17T06:12:23.671Z,11.95
2019-05-17T06:14:53.288Z,11.79
2019-05-17T06:17:26.078Z,11.82
2019-05-17T06:19:56.190Z,11.94
2019-05-17T06:22:26.228Z,11.94
2019-05-17T06:24:56.242Z,11.94
2019-05-17T06:27:26.344Z,12.08
2019-05-17T06:29:56.344Z,12.04
2019-05-17T06:32:26.453Z,12.02
2019-05-17T06:34:56.512Z,12.04
2019-05-17T06:37:26.603Z,12.02
2019-05-17T06:40:02.100Z,12.05
2019-05-17T06:42:40.560Z,12.18
2019-05-17T06:45:03.271Z,12.30
2019-05-17T06:47:33.263Z,12.44
2019-05-17T06:50:04.335Z,12.55
2019-05-17T06:52:34.413Z,12.53
2019-05-17T06:55:06.381Z,12.52
2019-05-17T06:57:36.424Z,12.56
2019-05-17T07:00:12.453Z,12.62
2019-05-17T07:02:40.232Z,12.65
2019-05-17T07:05:12.862Z,12.58
2019-05-17T07:07:42.949Z,12.58
2019-05-17T07:10:13.803Z,12.72
2019-05-17T07:12:56.001Z,12.89
2019-05-17T07:15:20.271Z,13.01
2019-05-17T07:17:50.570Z,13.04
2019-05-17T07:20:20.837Z,13.12
2019-05-17T07:22:51.596Z,13.26
2019-05-17T07:25:21.861Z,13.39
2019-05-17T07:27:53.637Z,13.46
2019-05-17T07:30:26.802Z,13.32
2019-05-17T07:32:57.445Z,13.30
2019-05-17T07:35:32.267Z,13.41
2019-05-17T07:38:05.359Z,13.64
2019-05-17T07:40:35.441Z,13.83
2019-05-17T07:43:10.828Z,13.93
2019-05-17T07:45:37.178Z,14.02
2019-05-17T07:48:09.578Z,13.94
2019-05-17T07:50:39.874Z,13.81
2019-05-17T07:53:12.250Z,13.70
2019-05-17T07:55:42.268Z,13.73
2019-05-17T07:58:12.296Z,13.64
2019-05-17T08:00:44.759Z,13.71
2019-05-17T08:03:14.966Z,13.91
2019-05-17T08:05:45.239Z,14.31
2019-05-17T08:08:15.274Z,14.44
2019-05-17T08:10:45.410Z,14.65
2019-05-17T08:13:29.206Z,15.02
2019-05-17T08:15:47.304Z,15.28
2019-05-17T08:18:17.350Z,15.39
2019-05-17T08:20:47.425Z,15.40
2019-05-17T08:23:19.895Z,15.27
2019-05-17T08:25:53.678Z,15.12
2019-05-17T08:28:21.701Z,15.15
2019-05-17T08:30:51.915Z,15.15
2019-05-17T08:33:21.924Z,15.31
2019-05-17T08:35:51.968Z,15.42
2019-05-17T08:38:22.600Z,15.23
2019-05-17T08:40:52.631Z,15.26
2019-05-17T08:43:22.797Z,15.27
2019-05-17T08:45:52.829Z,15.33
2019-05-17T08:48:22.974Z,15.20
2019-05-17T08:50:53.045Z,15.00
2019-05-17T08:53:26.034Z,15.12
2019-05-17T08:55:56.072Z,15.09
2019-05-17T08:58:26.327Z,14.99
2019-05-17T09:00:56.425Z,15.15
2019-05-17T09:03:26.437Z,15.26
2019-05-17T09:05:56.548Z,15.21
2019-05-17T09:08:26.554Z,15.09
2019-05-17T09:10:56.583Z,14.91
2019-05-17T09:13:26.599Z,14.84
2019-05-17T09:15:56.709Z,14.80
2019-05-17T09:18:26.831Z,14.95
2019-05-17T09:20:56.878Z,15.21
2019-05-17T09:23:26.921Z,15.42
2019-05-17T09:25:59.370Z,15.43
2019-05-17T09:28:30.046Z,15.38
2019-05-17T09:31:00.257Z,15.51
2019-05-17T09:33:30.363Z,15.67
2019-05-17T09:36:01.080Z,15.71
2019-05-17T09:38:31.418Z,15.90
2019-05-17T09:41:02.571Z,15.95
2019-05-17T09:43:32.609Z,15.97
2019-05-17T09:46:04.149Z,15.68
2019-05-17T09:48:34.252Z,15.62
2019-05-17T09:51:04.370Z,15.56
2019-05-17T09:53:34.390Z,15.56
2019-05-17T09:56:04.480Z,15.47
2019-05-17T09:58:34.573Z,15.53
2019-05-17T10:01:04.941Z,15.51
2019-05-17T10:03:35.263Z,15.29
2019-05-17T10:06:05.385Z,15.30
2019-05-17T10:08:35.965Z,15.46
2019-05-17T10:11:11.286Z,15.56
2019-05-17T10:13:38.422Z,15.60
2019-05-17T10:16:10.098Z,15.76
2019-05-17T10:18:40.333Z,15.96
2019-05-17T10:21:10.621Z,15.83
2019-05-17T10:23:40.900Z,16.07
2019-05-17T10:26:11.206Z,16.07
2019-05-17T10:28:46.376Z,16.08
2019-05-17T10:31:16.374Z,16.12
2019-05-17T10:33:46.476Z,16.15
2019-05-17T10:36:16.706Z,16.31
2019-05-17T10:38:46.755Z,16.56
2019-05-17T10:41:19.854Z,16.55
2019-05-17T10:43:51.173Z,16.32
2019-05-17T10:46:21.796Z,16.24
2019-05-17T10:48:55.160Z,16.37
2019-05-17T10:51:25.271Z,16.42
2019-05-17T10:53:55.301Z,16.16
2019-05-17T10:56:25.474Z,16.27
2019-05-17T10:58:55.485Z,16.26
2019-05-17T11:01:25.543Z,16.48
2019-05-17T11:03:55.627Z,16.63
2019-05-17T11:06:25.739Z,17.06
2019-05-17T11:08:59.504Z,17.10
2019-05-17T11:11:31.313Z,16.85
2019-05-17T11:14:01.343Z,16.99
2019-05-17T11:16:32.093Z,17.05
2019-05-17T11:19:02.133Z,17.15
2019-05-17T11:21:33.760Z,17.34
2019-05-17T11:24:04.036Z,17.56
2019-05-17T11:26:34.046Z,17.36
2019-05-17T11:29:05.685Z,17.16
2019-05-17T11:31:36.950Z,16.91
2019-05-17T11:34:07.035Z,16.86
2019-05-17T11:36:37.062Z,16.89
2019-05-17T11:39:10.200Z,17.10
2019-05-17T11:41:42.349Z,17.06
2019-05-17T11:44:13.026Z,17.13
2019-05-17T11:46:43.636Z,16.95
2019-05-17T11:49:13.630Z,17.17
2019-05-17T11:51:43.649Z,17.21
2019-05-17T11:54:14.715Z,17.25
2019-05-17T11:56:44.729Z,17.04
2019-05-17T11:59:14.758Z,16.92
2019-05-17T12:01:44.820Z,17.01
2019-05-17T12:04:14.908Z,16.95
2019-05-17T12:06:44.917Z,16.86
2019-05-17T12:09:14.961Z,16.85
2019-05-17T12:11:45.032Z,16.92
2019-05-17T12:14:15.045Z,17.06
2019-05-17T12:16:45.060Z,17.03
2019-05-17T12:19:15.151Z,17.23
2019-05-17T12:21:45.182Z,17.40
2019-05-17T12:24:15.331Z,17.51
2019-05-17T12:26:47.438Z,17.82
2019-05-17T12:29:17.030Z,17.72
2019-05-17T12:31:47.150Z,17.83
2019-05-17T12:34:18.910Z,18.00
2019-05-17T12:36:48.925Z,17.95
2019-05-17T12:39:18.906Z,17.95
2019-05-17T12:41:48.998Z,17.67
2019-05-17T12:44:19.174Z,17.55
2019-05-17T12:46:49.762Z,17.38
2019-05-17T12:49:19.828Z,17.31
2019-05-17T12:51:49.838Z,17.24
2019-05-17T12:54:19.915Z,16.91
2019-05-17T12:56:50.889Z,17.07
2019-05-17T12:59:20.912Z,17.22
2019-05-17T13:01:53.289Z,17.34
2019-05-17T13:04:23.303Z,17.23
2019-05-17T13:06:53.325Z,17.22
2019-05-17T13:09:24.495Z,17.34
2019-05-17T13:11:57.607Z,17.44
2019-05-17T13:14:28.363Z,17.30
2019-05-17T13:16:58.355Z,17.42
2019-05-17T13:19:28.446Z,17.12
2019-05-17T13:22:01.322Z,16.97
2019-05-17T13:24:31.481Z,16.98
2019-05-17T13:27:01.948Z,16.97
2019-05-17T13:29:32.057Z,17.02
2019-05-17T13:32:04.831Z,16.82
2019-05-17T13:34:36.468Z,16.68
2019-05-17T13:37:07.209Z,16.67
2019-05-17T13:39:37.302Z,16.68
2019-05-17T13:42:10.526Z,16.69
2019-05-17T13:44:42.299Z,16.69
2019-05-17T13:47:13.462Z,16.65
2019-05-17T13:49:43.743Z,16.60
2019-05-17T13:52:13.899Z,16.75
2019-05-17T13:54:43.978Z,16.75
2019-05-17T13:57:16.765Z,16.86
2019-05-17T13:59:46.784Z,16.84
2019-05-17T14:02:21.111Z,16.94
2019-05-17T14:04:53.168Z,17.04
2019-05-17T14:07:23.261Z,17.10
2019-05-17T14:09:55.646Z,17.08
2019-05-17T14:12:25.680Z,17.16
2019-05-17T14:14:55.699Z,17.18
2019-05-17T14:17:25.720Z,17.20
2019-05-17T14:19:57.320Z,17.09
2019-05-17T14:22:27.336Z,16.95
2019-05-17T14:24:57.636Z,17.12
2019-05-17T14:27:27.779Z,17.05
2019-05-17T14:29:57.741Z,17.04
2019-05-17T14:32:28.892Z,17.00
2019-05-17T14:34:58.922Z,17.12
2019-05-17T14:37:29.022Z,17.02
2019-05-17T14:39:59.138Z,17.17
2019-05-17T14:42:29.154Z,17.20
2019-05-17T14:44:59.293Z,17.09
2019-05-17T14:47:29.307Z,17.05
2019-05-17T14:49:59.405Z,17.18
2019-05-17T14:52:29.415Z,17.21
2019-05-17T14:54:59.452Z,17.16
2019-05-17T14:57:29.456Z,17.10
2019-05-17T14:59:59.450Z,17.13
2019-05-17T15:02:31.153Z,17.21
2019-05-17T15:05:01.594Z,17.07
2019-05-17T15:07:31.980Z,16.96
2019-05-17T15:10:05.010Z,17.00
2019-05-17T15:12:35.115Z,16.99
2019-05-17T15:15:09.901Z,17.00
2019-05-17T15:17:39.917Z,17.05
2019-05-17T15:20:11.626Z,17.06
2019-05-17T15:22:46.484Z,17.08
2019-05-17T15:25:19.753Z,17.03
2019-05-17T15:27:49.778Z,17.06
2019-05-17T15:30:20.945Z,16.94
2019-05-17T15:32:51.052Z,16.90
2019-05-17T15:35:21.093Z,16.74
2019-05-17T15:37:51.191Z,16.88
2019-05-17T15:40:23.244Z,16.96
2019-05-17T15:42:53.447Z,16.99
2019-05-17T15:45:23.527Z,16.96
2019-05-17T15:47:53.696Z,17.15
2019-05-17T15:50:23.880Z,17.26
2019-05-17T15:52:53.901Z,17.12
2019-05-17T15:55:24.150Z,17.16
2019-05-17T15:57:54.184Z,17.24
2019-05-17T16:00:27.221Z,17.33
2019-05-17T16:02:58.860Z,17.18
2019-05-17T16:05:28.937Z,16.98
2019-05-17T16:07:59.050Z,16.84
2019-05-17T16:10:29.136Z,16.89
2019-05-17T16:13:02.863Z,16.83
2019-05-17T16:15:32.213Z,16.82
2019-05-17T16:18:02.286Z,16.56
2019-05-17T16:20:32.787Z,16.50
2019-05-17T16:23:02.842Z,16.54
2019-05-17T16:25:34.045Z,16.57
2019-05-17T16:28:04.187Z,16.55
2019-05-17T16:30:34.360Z,16.67
2019-05-17T16:33:04.431Z,16.73
2019-05-17T16:35:34.532Z,16.77
2019-05-17T16:38:04.684Z,16.73
2019-05-17T16:40:34.718Z,16.70
2019-05-17T16:43:17.070Z,16.70
2019-05-17T16:45:36.753Z,16.68
2019-05-17T16:48:07.909Z,16.62
2019-05-17T16:50:37.936Z,16.58
2019-05-17T16:53:08.042Z,16.51
2019-05-17T16:55:38.067Z,16.52
2019-05-17T16:58:08.235Z,16.50
2019-05-17T17:00:41.489Z,16.41
2019-05-17T17:03:11.753Z,16.39
2019-05-17T17:05:42.004Z,16.35
2019-05-17T17:08:12.198Z,16.31
2019-05-17T17:10:42.361Z,16.33
2019-05-17T17:13:32.201Z,16.29
2019-05-17T17:15:50.933Z,16.33
2019-05-17T17:18:20.976Z,16.27
2019-05-17T17:20:51.032Z,16.23
2019-05-17T17:23:21.182Z,16.17
2019-05-17T17:25:54.459Z,16.18
2019-05-17T17:28:25.744Z,16.18
2019-05-17T17:30:56.616Z,16.09
2019-05-17T17:33:27.919Z,16.08
2019-05-17T17:35:58.571Z,16.03
2019-05-17T17:38:30.925Z,15.97
2019-05-17T17:41:02.300Z,15.96
2019-05-17T17:43:32.561Z,15.84
2019-05-17T17:46:07.659Z,15.77
2019-05-17T17:48:38.080Z,15.63
2019-05-17T17:51:17.661Z,15.64
2019-05-17T17:53:47.653Z,15.56
2019-05-17T17:56:19.538Z,15.52
2019-05-17T17:58:49.663Z,15.46
2019-05-17T18:01:19.838Z,15.38
2019-05-17T18:03:50.359Z,15.34
2019-05-17T18:06:23.236Z,15.26
2019-05-17T18:08:53.325Z,15.24
2019-05-17T18:11:23.930Z,15.17
2019-05-17T18:13:55.186Z,15.19
2019-05-17T18:16:26.581Z,15.05
2019-05-17T18:18:56.689Z,15.03
2019-05-17T18:21:26.831Z,14.98
2019-05-17T18:23:58.018Z,14.97
2019-05-17T18:26:28.005Z,14.93
2019-05-17T18:28:59.845Z,14.95
2019-05-17T18:31:29.933Z,14.90
2019-05-17T18:34:00.093Z,14.85
2019-05-17T18:36:30.168Z,14.79
2019-05-17T18:39:00.903Z,14.74
2019-05-17T18:41:32.602Z,14.66
2019-05-17T18:44:06.723Z,14.59
2019-05-17T18:46:36.912Z,14.52
2019-05-17T18:49:07.000Z,14.43
2019-05-17T18:51:37.883Z,14.34
2019-05-17T18:54:10.651Z,14.25
2019-05-17T18:56:40.932Z,14.17
2019-05-17T18:59:11.095Z,14.06
2019-05-17T19:01:41.149Z,13.96
2019-05-17T19:04:11.258Z,13.89
2019-05-17T19:06:41.298Z,13.79
2019-05-17T19:09:11.338Z,13.71
2019-05-17T19:11:41.451Z,13.66
2019-05-17T19:14:11.476Z,13.59
2019-05-17T19:16:41.498Z,13.53
2019-05-17T19:19:11.574Z,13.47
2019-05-17T19:21:41.687Z,13.34
2019-05-17T19:24:11.748Z,13.20
2019-05-17T19:26:41.867Z,13.09
2019-05-17T19:29:11.973Z,13.03
2019-05-17T19:31:42.057Z,12.96
2019-05-17T19:34:12.192Z,12.88
2019-05-17T19:36:43.714Z,12.80
2019-05-17T19:39:14.120Z,12.66
2019-05-17T19:41:44.344Z,12.54
2019-05-17T19:44:16.007Z,12.49
2019-05-17T19:46:46.299Z,12.42
2019-05-17T19:49:16.310Z,12.34
2019-05-17T19:51:46.526Z,12.31
2019-05-17T19:54:16.547Z,12.20
2019-05-17T19:56:46.575Z,12.08
2019-05-17T19:59:16.584Z,12.01
2019-05-17T20:01:46.784Z,11.97
2019-05-17T20:04:16.923Z,11.95
2019-05-17T20:06:47.046Z,11.87
2019-05-17T20:09:17.131Z,11.82
2019-05-17T20:11:48.151Z,11.85
2019-05-17T20:14:18.232Z,11.83
2019-05-17T20:16:48.333Z,11.81
2019-05-17T20:19:18.345Z,11.80
2019-05-17T20:21:48.378Z,11.79
2019-05-17T20:24:18.489Z,11.84
2019-05-17T20:26:48.588Z,11.82
2019-05-17T20:29:18.587Z,11.79
2019-05-17T20:31:48.633Z,11.74
2019-05-17T20:34:18.709Z,11.66
2019-05-17T20:36:49.011Z,11.64
2019-05-17T20:39:21.194Z,11.58
2019-05-17T20:41:52.960Z,11.55
2019-05-17T20:44:23.093Z,11.51
2019-05-17T20:46:53.080Z,11.46
2019-05-17T20:49:23.195Z,11.45
2019-05-17T20:51:53.320Z,11.42
2019-05-17T20:54:23.332Z,11.41
2019-05-17T20:56:53.936Z,11.42
2019-05-17T20:59:24.013Z,11.38
2019-05-17T21:01:54.248Z,11.37
2019-05-17T21:04:24.420Z,11.34
2019-05-17T21:06:54.434Z,11.30
2019-05-17T21:09:24.688Z,11.24
2019-05-17T21:11:54.744Z,11.23
2019-05-17T21:14:24.942Z,11.25
2019-05-17T21:16:55.028Z,11.24
2019-05-17T21:19:25.080Z,11.26
2019-05-17T21:21:55.104Z,11.25
2019-05-17T21:24:25.304Z,11.23
2019-05-17T21:26:55.542Z,11.23
2019-05-17T21:29:27.155Z,11.17
2019-05-17T21:32:00.215Z,11.14
2019-05-17T21:34:30.317Z,11.12
2019-05-17T21:37:00.362Z,11.08
2019-05-17T21:39:30.372Z,11.04
2019-05-17T21:42:00.421Z,11.01
2019-05-17T21:44:30.547Z,11.01
2019-05-17T21:47:04.592Z,11.00
2019-05-17T21:49:32.315Z,10.97
2019-05-17T21:52:02.321Z,10.94
2019-05-17T21:54:32.352Z,10.91
2019-05-17T21:57:02.910Z,10.86
2019-05-17T21:59:33.475Z,10.79
2019-05-17T22:02:04.055Z,10.71
2019-05-17T22:04:35.537Z,10.50
2019-05-17T22:07:08.895Z,10.50
2019-05-17T22:09:39.083Z,10.39
2019-05-17T22:12:13.733Z,10.31
2019-05-17T22:14:46.818Z,10.30
2019-05-17T22:17:17.041Z,10.21
2019-05-17T22:19:47.211Z,10.21
2019-05-17T22:22:17.533Z,10.19
2019-05-17T22:24:47.582Z,10.15
2019-05-17T22:27:17.683Z,10.10
2019-05-17T22:29:47.750Z,10.01
2019-05-17T22:32:19.424Z,9.98
2019-05-17T22:34:49.461Z,9.94
2019-05-17T22:37:19.578Z,9.93
2019-05-17T22:39:49.575Z,9.93
2019-05-17T22:42:19.676Z,9.95
2019-05-17T22:44:51.264Z,9.96
2019-05-17T22:47:21.287Z,9.95
2019-05-17T22:49:51.358Z,9.96
2019-05-17T22:52:21.453Z,9.95
2019-05-17T22:54:52.523Z,9.93
2019-05-17T22:57:22.706Z,9.87
2019-05-17T22:59:52.781Z,9.79
2019-05-17T23:02:22.881Z,9.69
2019-05-17T23:04:54.230Z,9.63
2019-05-17T23:07:24.312Z,9.52
2019-05-17T23:09:55.910Z,9.43
2019-05-17T23:12:27.649Z,9.39
2019-05-17T23:15:00.818Z,9.36
2019-05-17T23:17:31.072Z,9.35
2019-05-17T23:20:01.186Z,9.31
2019-05-17T23:22:31.262Z,9.20
2019-05-17T23:25:02.449Z,9.13
2019-05-17T23:27:32.582Z,9.12
2019-05-17T23:30:05.850Z,9.11
2019-05-17T23:32:35.859Z,9.08
2019-05-17T23:35:07.729Z,9.09
2019-05-17T23:37:38.710Z,9.13
2019-05-17T23:40:10.702Z,9.12
2019-05-17T23:42:40.791Z,9.05
2019-05-17T23:45:11.669Z,9.12
2019-05-17T23:47:41.653Z,9.11
2019-05-17T23:50:11.920Z,9.08
2019-05-17T23:52:41.936Z,9.02
2019-05-17T23:55:12.203Z,8.96
2019-05-17T23:57:43.708Z,8.94
